Time;durP1;ratioP1;P1;durP2;ratioP2;P2;SDS_P1;SDS_P2;PMS_P1;PMS_P2;Temp;Humidity;BMP_temperature;BMP_pressure;BME280_temperature;BME280_humidity;BME280_pressure;Samples;Min_cycle;Max_cycle;Signal;HPM_P1;HPM_P2
2022/03/09 00:00:20;;;;;;;8.93;7.20;;;;;;;;;;2065511;28;20173;-59
2022/03/09 00:01:20;;;;;;;8.80;7.30;;;;;;;;;;2074386;28;20558;-56
2022/03/09 00:02:20;;;;;;;6.87;6.20;;;;;;;;;;2074538;28;20211;-58
2022/03/09 00:03:21;;;;;;;7.50;6.80;;;;;;;;;;2074278;28;20185;-58
2022/03/09 00:04:21;;;;;;;7.07;6.47;;;;;;;;;;2074098;28;20200;-57
2022/03/09 00:05:21;;;;;;;7.83;7.10;;;;;;;;;;2066182;28;20165;-58
2022/03/09 00:06:21;;;;;;;7.73;6.57;;;;;;;;;;2066248;28;20217;-56
2022/03/09 00:07:22;;;;;;;7.80;6.63;;;;;;;;;;2073414;28;20711;-56
2022/03/09 00:08:22;;;;;;;7.43;6.73;;;;;;;;;;2065053;28;20221;-57
2022/03/09 00:09:22;;;;;;;7.83;6.60;;;;;;;;;;2064899;28;20670;-57
2022/03/09 00:10:23;;;;;;;7.13;6.53;;;;;;;;;;2073195;28;20711;-58
2022/03/09 00:11:23;;;;;;;7.13;6.43;;;;;;;;;;2065180;28;20334;-58
2022/03/09 00:12:24;;;;;;;7.10;6.53;;;;;;;;;;2065146;28;20752;-57
2022/03/09 00:13:24;;;;;;;7.37;6.67;;;;;;;;;;2073910;28;20238;-57
2022/03/09 00:14:24;;;;;;;7.87;7.17;;;;;;;;;;2072895;28;20188;-61
2022/03/09 00:15:24;;;;;;;6.87;6.27;;;;;;;;;;2073531;28;20235;-56
2022/03/09 00:16:25;;;;;;;7.57;6.87;;;;;;;;;;2076937;28;20180;-56
2022/03/09 00:17:25;;;;;;;8.00;6.97;;;;;;;;;;2082059;28;20172;-58
2022/03/09 00:18:25;;;;;;;7.37;6.27;;;;;;;;;;2074787;28;20212;-57
2022/03/09 00:19:25;;;;;;;7.27;6.57;;;;;;;;;;2065130;28;20644;-56
2022/03/09 00:20:26;;;;;;;7.33;6.47;;;;;;;;;;2065247;28;20165;-56
2022/03/09 00:21:26;;;;;;;6.97;6.40;;;;;;;;;;2073531;28;20231;-54
2022/03/09 00:22:26;;;;;;;7.60;6.87;;;;;;;;;;2073564;28;20208;-55
2022/03/09 00:23:26;;;;;;;7.27;6.47;;;;;;;;;;2073163;28;20173;-58
2022/03/09 00:24:27;;;;;;;7.53;6.80;;;;;;;;;;2073044;28;20196;-55
2022/03/09 00:25:27;;;;;;;7.07;6.57;;;;;;;;;;2074003;28;20550;-57
2022/03/09 00:26:27;;;;;;;6.83;6.17;;;;;;;;;;2073973;28;20192;-58
2022/03/09 00:27:29;;;;;;;7.33;6.63;;;;;;;;;;2073896;28;20184;-59
2022/03/09 00:28:30;;;;;;;8.67;6.73;;;;;;;;;;2073238;28;20204;-55
2022/03/09 00:29:30;;;;;;;8.10;7.40;;;;;;;;;;2073513;28;20523;-59
2022/03/09 00:30:31;;;;;;;8.17;6.90;;;;;;;;;;2073406;28;20189;-54
2022/03/09 00:31:31;;;;;;;8.20;7.40;;;;;;;;;;2073789;28;20264;-55
2022/03/09 00:32:31;;;;;;;7.80;7.10;;;;;;;;;;2073792;28;20165;-55
2022/03/09 00:33:32;;;;;;;10.37;7.20;;;;;;;;;;2073607;28;20189;-60
2022/03/09 00:34:33;;;;;;;9.73;7.47;;;;;;;;;;2073477;28;20216;-56
2022/03/09 00:35:33;;;;;;;7.87;7.13;;;;;;;;;;2073780;28;20222;-54
2022/03/09 00:36:33;;;;;;;9.50;7.53;;;;;;;;;;2073697;28;20196;-55
2022/03/09 00:37:34;;;;;;;8.30;7.50;;;;;;;;;;2073286;28;20193;-57
2022/03/09 00:38:34;;;;;;;7.70;7.00;;;;;;;;;;2073752;28;20625;-58
2022/03/09 00:39:34;;;;;;;7.77;6.97;;;;;;;;;;2073695;28;20173;-57
2022/03/09 00:40:35;;;;;;;9.07;6.80;;;;;;;;;;2073857;28;20205;-58
2022/03/09 00:41:35;;;;;;;8.80;7.90;;;;;;;;;;2073842;28;20670;-57
2022/03/09 00:42:36;;;;;;;8.00;7.27;;;;;;;;;;2073313;28;20232;-55
2022/03/09 00:43:36;;;;;;;8.87;7.83;;;;;;;;;;2073412;28;20638;-56
2022/03/09 00:44:37;;;;;;;9.53;7.57;;;;;;;;;;2072458;28;20411;-57
2022/03/09 00:45:37;;;;;;;8.50;7.27;;;;;;;;;;2064664;28;20268;-57
2022/03/09 00:46:37;;;;;;;8.77;7.60;;;;;;;;;;2064941;28;20228;-55
2022/03/09 00:47:38;;;;;;;8.33;7.17;;;;;;;;;;2072463;28;20188;-57
2022/03/09 00:48:39;;;;;;;8.03;7.27;;;;;;;;;;2073628;28;20200;-57
2022/03/09 00:49:39;;;;;;;8.43;7.63;;;;;;;;;;2073190;28;20266;-56
2022/03/09 00:50:40;;;;;;;8.57;7.23;;;;;;;;;;2073776;28;20476;-55
2022/03/09 00:51:40;;;;;;;7.53;6.93;;;;;;;;;;2073763;28;20207;-53
2022/03/09 00:52:40;;;;;;;8.80;7.87;;;;;;;;;;2064859;28;20173;-57
2022/03/09 00:53:41;;;;;;;8.03;7.27;;;;;;;;;;2064969;28;20661;-56
2022/03/09 00:54:41;;;;;;;8.53;7.63;;;;;;;;;;2073255;28;20227;-57
2022/03/09 00:55:41;;;;;;;8.07;7.33;;;;;;;;;;2074064;28;20214;-57
2022/03/09 00:56:42;;;;;;;7.33;6.73;;;;;;;;;;2073549;28;20245;-56
2022/03/09 00:57:42;;;;;;;9.60;7.40;;;;;;;;;;2073735;28;20184;-56
2022/03/09 00:58:42;;;;;;;7.53;6.87;;;;;;;;;;2074120;28;20211;-57
2022/03/09 00:59:42;;;;;;;8.40;7.43;;;;;;;;;;2076610;28;20185;-58
2022/03/09 01:00:43;;;;;;;8.27;7.57;;;;;;;;;;2076389;28;20169;-56
2022/03/09 01:01:43;;;;;;;8.57;7.77;;;;;;;;;;2076788;28;20222;-57
2022/03/09 01:02:45;;;;;;;7.43;6.67;;;;;;;;;;2076796;28;20173;-58
2022/03/09 01:03:45;;;;;;;7.90;7.10;;;;;;;;;;2077138;28;20193;-58
2022/03/09 01:04:45;;;;;;;7.53;6.83;;;;;;;;;;2066875;28;20435;-58
2022/03/09 01:05:46;;;;;;;10.60;7.17;;;;;;;;;;2060521;28;20265;-59
2022/03/09 01:06:46;;;;;;;8.73;7.57;;;;;;;;;;2060324;28;20182;-59
2022/03/09 01:07:46;;;;;;;8.17;7.37;;;;;;;;;;2065715;28;20172;-56
2022/03/09 01:08:46;;;;;;;10.13;7.53;;;;;;;;;;2066465;28;20654;-56
2022/03/09 01:09:47;;;;;;;8.93;7.13;;;;;;;;;;2073620;28;20185;-58
2022/03/09 01:10:47;;;;;;;7.90;7.10;;;;;;;;;;2073052;28;20332;-57
2022/03/09 01:11:47;;;;;;;7.60;6.90;;;;;;;;;;2073121;28;20171;-57
2022/03/09 01:12:47;;;;;;;8.30;7.53;;;;;;;;;;2076523;28;20179;-57
2022/03/09 01:13:48;;;;;;;7.97;7.17;;;;;;;;;;2072909;28;20227;-58
2022/03/09 01:14:48;;;;;;;8.03;7.20;;;;;;;;;;2072649;28;20177;-55
2022/03/09 01:15:48;;;;;;;8.17;7.37;;;;;;;;;;2073140;28;20268;-57
2022/03/09 01:16:49;;;;;;;8.87;7.90;;;;;;;;;;2072895;28;20200;-58
2022/03/09 01:17:50;;;;;;;7.50;6.63;;;;;;;;;;2063973;28;20817;-62
2022/03/09 01:18:50;;;;;;;7.57;6.73;;;;;;;;;;2064431;28;20462;-58
2022/03/09 01:19:51;;;;;;;8.73;7.40;;;;;;;;;;2073697;28;20173;-56
2022/03/09 01:20:51;;;;;;;8.13;7.33;;;;;;;;;;2073300;28;20176;-56
2022/03/09 01:21:51;;;;;;;8.10;7.40;;;;;;;;;;2073755;28;20211;-57
2022/03/09 01:22:52;;;;;;;8.33;7.63;;;;;;;;;;2072878;28;20157;-57
2022/03/09 01:23:53;;;;;;;8.27;7.47;;;;;;;;;;2064257;28;20177;-58
2022/03/09 01:24:53;;;;;;;9.87;8.23;;;;;;;;;;2063987;28;20403;-57
2022/03/09 01:25:53;;;;;;;8.67;7.83;;;;;;;;;;2072960;28;20173;-57
2022/03/09 01:26:53;;;;;;;8.73;7.90;;;;;;;;;;2063821;28;20180;-60
2022/03/09 01:27:54;;;;;;;10.60;7.43;;;;;;;;;;2063984;28;20661;-58
2022/03/09 01:28:54;;;;;;;9.53;7.27;;;;;;;;;;2072320;28;20583;-56
2022/03/09 01:29:54;;;;;;;8.73;7.83;;;;;;;;;;2072952;28;20189;-57
2022/03/09 01:30:54;;;;;;;9.57;7.93;;;;;;;;;;2073014;28;20212;-56
2022/03/09 01:31:55;;;;;;;8.30;7.53;;;;;;;;;;2072797;28;20207;-56
2022/03/09 01:32:55;;;;;;;8.00;7.17;;;;;;;;;;2073125;28;20173;-54
2022/03/09 01:33:55;;;;;;;8.47;7.13;;;;;;;;;;2074361;28;20239;-55
2022/03/09 01:34:55;;;;;;;8.07;7.27;;;;;;;;;;2074136;28;20169;-55
2022/03/09 01:35:55;;;;;;;9.73;7.27;;;;;;;;;;2074349;28;20264;-56
2022/03/09 01:36:56;;;;;;;8.50;7.57;;;;;;;;;;2073474;28;20184;-57
2022/03/09 01:37:56;;;;;;;7.70;7.00;;;;;;;;;;2073938;28;20195;-57
2022/03/09 01:38:56;;;;;;;7.93;7.03;;;;;;;;;;2073458;28;20204;-57
2022/03/09 01:39:57;;;;;;;9.10;7.67;;;;;;;;;;2074390;28;20618;-56
2022/03/09 01:40:57;;;;;;;8.70;7.73;;;;;;;;;;2073842;28;20662;-57
2022/03/09 01:41:58;;;;;;;8.33;7.53;;;;;;;;;;2073338;28;20169;-55
2022/03/09 01:42:58;;;;;;;7.87;7.07;;;;;;;;;;2073860;28;20200;-56
2022/03/09 01:44:11;;;;;;;9.40;7.83;;;;;;;;;;2064875;28;20664;-56
2022/03/09 01:45:12;;;;;;;11.00;7.20;;;;;;;;;;2067807;28;20186;-54
2022/03/09 01:46:13;;;;;;;7.60;6.97;;;;;;;;;;2065632;28;20427;-58
2022/03/09 01:47:13;;;;;;;9.13;7.67;;;;;;;;;;2064961;28;20547;-55
2022/03/09 01:48:13;;;;;;;8.50;7.67;;;;;;;;;;2074807;28;20213;-53
2022/03/09 01:49:14;;;;;;;8.50;7.70;;;;;;;;;;2074549;28;20203;-56
2022/03/09 01:50:14;;;;;;;8.00;7.17;;;;;;;;;;2065295;28;20180;-55
2022/03/09 01:51:15;;;;;;;7.90;7.10;;;;;;;;;;2065738;28;20173;-54
2022/03/09 01:52:15;;;;;;;8.20;7.40;;;;;;;;;;2074478;28;20173;-57
2022/03/09 01:53:17;;;;;;;10.53;7.90;;;;;;;;;;2074848;28;20177;-57
2022/03/09 01:54:18;;;;;;;7.97;7.23;;;;;;;;;;2074762;28;20176;-57
2022/03/09 01:55:18;;;;;;;7.20;6.50;;;;;;;;;;2065816;28;20521;-55
2022/03/09 01:56:18;;;;;;;8.47;7.47;;;;;;;;;;2066254;28;20328;-59
2022/03/09 01:57:22;;;;;;;9.27;8.43;;;;;;;;;;2074452;28;20235;-54
2022/03/09 01:58:23;;;;;;;9.23;8.43;;;;;;;;;;2073842;28;20283;-57
2022/03/09 01:59:23;;;;;;;8.67;7.60;;;;;;;;;;2074528;28;20410;-53
2022/03/09 02:00:24;;;;;;;8.13;7.33;;;;;;;;;;2074679;28;20173;-56
2022/03/09 02:01:24;;;;;;;8.17;7.37;;;;;;;;;;2075281;28;20316;-56
2022/03/09 02:02:24;;;;;;;8.17;7.37;;;;;;;;;;2074826;28;20169;-57
2022/03/09 02:03:24;;;;;;;7.97;7.27;;;;;;;;;;2073627;28;20673;-57
2022/03/09 02:04:25;;;;;;;8.73;7.87;;;;;;;;;;2074835;28;20479;-56
2022/03/09 02:05:25;;;;;;;10.40;8.10;;;;;;;;;;2075105;28;20207;-54
2022/03/09 02:06:25;;;;;;;9.47;7.70;;;;;;;;;;2074397;28;20176;-59
2022/03/09 02:10:06;;;;;;;7.87;7.17;;;;;;;;;;2075416;28;20406;-53
2022/03/09 02:11:07;;;;;;;8.13;7.30;;;;;;;;;;2075469;28;20500;-57
2022/03/09 02:12:09;;;;;;;9.00;8.10;;;;;;;;;;2066580;28;21112;-56
2022/03/09 02:13:09;;;;;;;7.47;6.87;;;;;;;;;;2050447;29;20262;-57
2022/03/09 02:14:28;;;;;;;9.20;8.27;;;;;;;;;;2054695;28;20412;-53
2022/03/09 02:15:28;;;;;;;8.23;7.43;;;;;;;;;;2074998;28;20195;-54
2022/03/09 02:16:28;;;;;;;8.93;7.83;;;;;;;;;;2077995;28;20425;-56
2022/03/09 02:17:29;;;;;;;8.87;7.97;;;;;;;;;;2072659;28;20204;-56
2022/03/09 02:18:29;;;;;;;8.63;7.73;;;;;;;;;;2072217;28;20279;-55
2022/03/09 02:19:30;;;;;;;7.83;7.13;;;;;;;;;;2072843;28;20173;-57
2022/03/09 02:20:31;;;;;;;8.23;7.37;;;;;;;;;;2064416;28;20189;-54
2022/03/09 02:21:32;;;;;;;10.70;7.30;;;;;;;;;;2064038;28;20256;-59
2022/03/09 02:22:43;;;;;;;8.47;7.60;;;;;;;;;;2073557;28;20173;-54
2022/03/09 02:23:44;;;;;;;8.57;7.77;;;;;;;;;;2066431;28;20395;-55
2022/03/09 02:24:48;;;;;;;9.10;8.03;;;;;;;;;;2072885;28;20394;-58
2022/03/09 02:25:49;;;;;;;9.17;8.27;;;;;;;;;;2072530;28;20424;-56
2022/03/09 02:26:49;;;;;;;8.90;8.03;;;;;;;;;;2072581;28;20426;-56
2022/03/09 02:27:50;;;;;;;8.67;7.30;;;;;;;;;;2072551;28;20173;-55
2022/03/09 02:28:50;;;;;;;9.50;8.57;;;;;;;;;;2073720;28;20176;-55
2022/03/09 02:29:51;;;;;;;8.33;7.53;;;;;;;;;;2063776;28;20269;-55
2022/03/09 02:30:55;;;;;;;9.80;8.37;;;;;;;;;;2064129;28;20178;-55
2022/03/09 02:31:55;;;;;;;8.47;7.40;;;;;;;;;;2063796;28;20418;-60
2022/03/09 02:32:55;;;;;;;8.53;7.73;;;;;;;;;;2064255;28;20947;-59
2022/03/09 02:33:55;;;;;;;8.97;8.03;;;;;;;;;;2072349;28;20175;-57
2022/03/09 02:34:56;;;;;;;8.53;7.73;;;;;;;;;;2072337;28;20188;-56
2022/03/09 02:35:57;;;;;;;7.93;7.13;;;;;;;;;;2072998;28;20197;-58
2022/03/09 02:36:58;;;;;;;8.20;7.37;;;;;;;;;;2072540;28;20433;-56
2022/03/09 02:37:58;;;;;;;8.70;7.60;;;;;;;;;;2072952;28;20185;-56
2022/03/09 02:38:58;;;;;;;8.87;7.70;;;;;;;;;;2074281;28;20197;-56
2022/03/09 02:39:58;;;;;;;8.80;7.97;;;;;;;;;;2074196;28;20232;-57
2022/03/09 02:40:59;;;;;;;11.67;8.70;;;;;;;;;;2074120;28;20207;-54
2022/03/09 02:41:59;;;;;;;8.87;7.97;;;;;;;;;;2074382;28;20296;-54
2022/03/09 02:42:59;;;;;;;10.10;8.50;;;;;;;;;;2074448;28;20188;-57
2022/03/09 02:44:02;;;;;;;9.87;8.93;;;;;;;;;;2074118;28;20542;-56
2022/03/09 02:45:03;;;;;;;10.00;7.90;;;;;;;;;;2075343;28;20181;-56
2022/03/09 02:46:03;;;;;;;10.00;8.83;;;;;;;;;;2065452;28;20905;-55
2022/03/09 02:47:03;;;;;;;8.50;7.60;;;;;;;;;;2066617;28;20177;-55
2022/03/09 02:48:04;;;;;;;10.73;7.90;;;;;;;;;;2078881;28;20189;-57
2022/03/09 02:49:04;;;;;;;8.60;7.70;;;;;;;;;;2065398;28;20577;-56
2022/03/09 02:50:05;;;;;;;10.90;8.27;;;;;;;;;;2065276;28;20212;-58
2022/03/09 02:51:05;;;;;;;9.97;8.50;;;;;;;;;;2074673;28;20359;-58
2022/03/09 02:52:06;;;;;;;9.37;7.83;;;;;;;;;;2073994;28;20185;-56
2022/03/09 02:53:06;;;;;;;9.77;8.80;;;;;;;;;;2073977;28;20260;-56
2022/03/09 02:54:06;;;;;;;8.77;7.93;;;;;;;;;;2064961;28;20174;-56
2022/03/09 02:55:07;;;;;;;8.23;7.30;;;;;;;;;;2065560;28;20178;-57
2022/03/09 02:56:07;;;;;;;9.43;7.90;;;;;;;;;;2070176;28;20319;-57
2022/03/09 02:57:08;;;;;;;9.10;7.97;;;;;;;;;;2074074;28;20488;-58
2022/03/09 02:58:08;;;;;;;9.00;8.10;;;;;;;;;;2073749;28;20638;-58
2022/03/09 02:59:08;;;;;;;11.57;9.07;;;;;;;;;;2065180;28;20265;-58
2022/03/09 03:00:09;;;;;;;10.00;8.13;;;;;;;;;;2065151;28;20201;-55
2022/03/09 03:01:12;;;;;;;10.57;8.10;;;;;;;;;;2065316;28;20655;-56
2022/03/09 03:02:13;;;;;;;9.03;7.77;;;;;;;;;;2065338;28;20427;-57
2022/03/09 03:03:13;;;;;;;8.43;7.47;;;;;;;;;;2073273;28;20422;-57
2022/03/09 03:04:14;;;;;;;11.33;8.47;;;;;;;;;;2064616;28;20268;-58
2022/03/09 03:05:14;;;;;;;8.93;7.77;;;;;;;;;;2065533;28;20209;-57
2022/03/09 03:06:15;;;;;;;8.57;7.67;;;;;;;;;;2062378;28;20186;-55
2022/03/09 03:07:15;;;;;;;8.77;7.87;;;;;;;;;;2057064;28;20201;-57
2022/03/09 03:08:15;;;;;;;9.43;8.13;;;;;;;;;;2064795;28;20347;-58
2022/03/09 03:09:16;;;;;;;8.87;7.93;;;;;;;;;;2073644;28;20567;-58
2022/03/09 03:10:16;;;;;;;9.10;8.20;;;;;;;;;;2073148;28;20183;-55
2022/03/09 03:11:16;;;;;;;7.93;7.23;;;;;;;;;;2065132;28;20207;-55
2022/03/09 03:12:16;;;;;;;14.97;7.60;;;;;;;;;;2065108;28;20229;-56
2022/03/09 03:13:17;;;;;;;9.17;8.23;;;;;;;;;;2073334;28;20547;-59
2022/03/09 03:14:17;;;;;;;9.77;8.43;;;;;;;;;;2073320;28;20270;-55
2022/03/09 03:15:17;;;;;;;8.20;7.50;;;;;;;;;;2073771;28;20200;-57
2022/03/09 03:16:18;;;;;;;10.03;8.10;;;;;;;;;;2067072;28;20173;-56
2022/03/09 03:17:18;;;;;;;9.60;8.73;;;;;;;;;;2065097;28;20682;-58
2022/03/09 03:18:18;;;;;;;8.60;7.67;;;;;;;;;;2064519;28;20567;-57
2022/03/09 03:19:18;;;;;;;8.07;7.37;;;;;;;;;;2065269;28;20189;-57
2022/03/09 03:20:18;;;;;;;8.03;7.27;;;;;;;;;;2064758;28;20177;-58
2022/03/09 03:21:19;;;;;;;10.43;7.87;;;;;;;;;;2074009;28;20595;-53
2022/03/09 03:22:19;;;;;;;8.93;7.60;;;;;;;;;;2073915;28;20650;-56
2022/03/09 03:23:23;;;;;;;7.83;7.13;;;;;;;;;;2074239;28;20185;-55
2022/03/09 03:24:24;;;;;;;8.53;7.73;;;;;;;;;;2064938;28;20245;-57
2022/03/09 03:25:24;;;;;;;8.97;8.17;;;;;;;;;;2065357;28;20443;-56
2022/03/09 03:26:24;;;;;;;8.30;7.50;;;;;;;;;;2065000;28;20178;-58
2022/03/09 03:27:25;;;;;;;8.77;7.50;;;;;;;;;;2056763;28;20221;-54
2022/03/09 03:28:25;;;;;;;9.17;7.50;;;;;;;;;;2063697;28;20623;-55
2022/03/09 03:29:25;;;;;;;9.30;8.37;;;;;;;;;;2073676;28;20299;-56
2022/03/09 03:30:25;;;;;;;8.33;7.63;;;;;;;;;;2073809;28;20172;-55
2022/03/09 03:31:29;;;;;;;9.23;8.23;;;;;;;;;;2073502;28;20189;-53
2022/03/09 03:32:29;;;;;;;9.43;8.47;;;;;;;;;;2073605;28;20181;-55
2022/03/09 03:33:29;;;;;;;8.90;8.00;;;;;;;;;;2074745;28;20470;-55
2022/03/09 03:34:30;;;;;;;9.37;7.67;;;;;;;;;;2064758;28;20178;-57
2022/03/09 03:35:30;;;;;;;8.60;7.80;;;;;;;;;;2065803;28;20178;-54
2022/03/09 03:36:30;;;;;;;8.67;7.87;;;;;;;;;;2073820;28;20220;-56
2022/03/09 03:37:31;;;;;;;9.40;8.60;;;;;;;;;;2074425;28;20172;-56
2022/03/09 03:38:31;;;;;;;10.13;8.37;;;;;;;;;;2065144;28;20232;-57
2022/03/09 03:39:31;;;;;;;9.70;8.70;;;;;;;;;;2065596;28;20256;-55
2022/03/09 03:40:32;;;;;;;9.87;8.50;;;;;;;;;;2074515;28;20172;-54
2022/03/09 03:41:32;;;;;;;10.17;8.07;;;;;;;;;;2073839;28;20192;-57
2022/03/09 03:42:32;;;;;;;9.53;8.63;;;;;;;;;;2074523;28;20173;-56
2022/03/09 03:43:32;;;;;;;9.37;7.70;;;;;;;;;;2073600;28;20192;-59
2022/03/09 03:44:33;;;;;;;8.87;8.03;;;;;;;;;;2073543;28;20675;-57
2022/03/09 03:45:33;;;;;;;11.33;8.67;;;;;;;;;;2073965;28;20208;-59
2022/03/09 03:46:34;;;;;;;9.07;8.13;;;;;;;;;;2073731;28;20169;-59
2022/03/09 03:47:34;;;;;;;10.30;9.17;;;;;;;;;;2073641;28;20184;-56
2022/03/09 03:48:34;;;;;;;9.50;8.57;;;;;;;;;;2073730;28;20204;-56
2022/03/09 03:49:34;;;;;;;9.83;8.93;;;;;;;;;;2073758;28;20180;-55
2022/03/09 03:50:35;;;;;;;9.30;8.33;;;;;;;;;;2073120;28;20219;-57
2022/03/09 03:51:35;;;;;;;9.87;8.83;;;;;;;;;;2075239;28;20268;-59
2022/03/09 03:52:35;;;;;;;9.07;8.17;;;;;;;;;;2074298;28;20191;-56
2022/03/09 03:53:36;;;;;;;9.80;8.80;;;;;;;;;;2073994;28;20535;-58
2022/03/09 03:54:36;;;;;;;9.53;8.57;;;;;;;;;;2064758;28;20208;-58
2022/03/09 03:55:36;;;;;;;10.80;9.53;;;;;;;;;;2065116;28;20178;-59
2022/03/09 03:56:36;;;;;;;9.93;8.93;;;;;;;;;;2073513;28;20184;-58
2022/03/09 03:57:37;;;;;;;10.40;9.33;;;;;;;;;;2074739;28;20181;-56
2022/03/09 03:58:37;;;;;;;13.40;10.60;;;;;;;;;;2065299;28;20213;-59
2022/03/09 03:59:37;;;;;;;14.50;11.53;;;;;;;;;;2065628;28;20172;-56
2022/03/09 04:00:37;;;;;;;15.77;11.50;;;;;;;;;;2073233;28;20173;-53
2022/03/09 04:01:38;;;;;;;16.67;11.33;;;;;;;;;;2073979;28;20201;-59
2022/03/09 04:02:38;;;;;;;12.70;10.47;;;;;;;;;;2072673;28;20215;-58
2022/03/09 04:03:38;;;;;;;12.90;10.07;;;;;;;;;;2072980;28;20169;-57
2022/03/09 04:04:39;;;;;;;9.37;8.37;;;;;;;;;;2073138;28;20641;-55
2022/03/09 04:05:39;;;;;;;10.07;9.07;;;;;;;;;;2073411;28;20654;-55
2022/03/09 04:06:39;;;;;;;10.83;8.83;;;;;;;;;;2073791;28;20175;-56
2022/03/09 04:07:39;;;;;;;10.33;9.33;;;;;;;;;;2073729;28;20192;-55
2022/03/09 04:08:40;;;;;;;10.30;8.07;;;;;;;;;;2086737;22;20232;-62
2022/03/09 04:09:40;;;;;;;11.00;9.70;;;;;;;;;;2076562;28;20596;-60
2022/03/09 04:10:41;;;;;;;11.20;9.17;;;;;;;;;;2072524;28;20176;-62
2022/03/09 04:11:41;;;;;;;13.53;10.17;;;;;;;;;;2065846;28;20177;-59
2022/03/09 04:12:41;;;;;;;14.77;11.50;;;;;;;;;;2072166;28;20180;-60
2022/03/09 04:13:42;;;;;;;9.37;8.40;;;;;;;;;;2064233;28;20212;-59
2022/03/09 04:14:43;;;;;;;11.87;9.53;;;;;;;;;;2064092;28;20213;-61
2022/03/09 04:15:43;;;;;;;11.63;9.10;;;;;;;;;;2064477;28;20392;-60
2022/03/09 04:16:45;;;;;;;9.90;8.90;;;;;;;;;;2055859;28;20174;-59
2022/03/09 04:17:46;;;;;;;12.93;9.00;;;;;;;;;;2070365;28;20173;-59
2022/03/09 04:18:46;;;;;;;12.20;7.73;;;;;;;;;;2072640;28;20465;-60
2022/03/09 04:19:46;;;;;;;11.63;9.40;;;;;;;;;;2072193;28;20193;-59
2022/03/09 04:20:47;;;;;;;9.37;8.47;;;;;;;;;;2071842;28;20161;-60
2022/03/09 04:21:47;;;;;;;10.77;8.20;;;;;;;;;;2072873;28;20207;-57
2022/03/09 04:22:47;;;;;;;10.07;7.87;;;;;;;;;;2073122;28;20169;-60
2022/03/09 04:23:47;;;;;;;10.87;8.70;;;;;;;;;;2064186;28;20682;-58
2022/03/09 04:24:48;;;;;;;9.87;8.83;;;;;;;;;;2063979;28;20643;-61
2022/03/09 04:25:48;;;;;;;9.40;8.50;;;;;;;;;;2065876;28;20230;-58
2022/03/09 04:26:49;;;;;;;9.17;8.13;;;;;;;;;;2064656;28;20572;-60
2022/03/09 04:27:50;;;;;;;9.63;8.73;;;;;;;;;;2064171;28;20403;-61
2022/03/09 04:28:50;;;;;;;9.67;8.73;;;;;;;;;;2067623;28;20273;-61
2022/03/09 04:29:50;;;;;;;9.83;8.77;;;;;;;;;;2072854;28;20644;-60
2022/03/09 04:30:50;;;;;;;10.77;8.50;;;;;;;;;;2073054;28;20169;-59
2022/03/09 04:31:51;;;;;;;9.00;8.20;;;;;;;;;;2073538;28;20219;-60
2022/03/09 04:32:51;;;;;;;8.50;7.63;;;;;;;;;;2074203;28;20169;-56
2022/03/09 04:33:51;;;;;;;10.23;8.37;;;;;;;;;;2064917;28;20208;-56
2022/03/09 04:34:52;;;;;;;10.77;8.80;;;;;;;;;;2064543;28;20184;-56
2022/03/09 04:35:52;;;;;;;9.97;7.70;;;;;;;;;;2069181;28;20184;-57
2022/03/09 04:36:53;;;;;;;9.60;8.67;;;;;;;;;;2073879;28;20177;-59
2022/03/09 04:37:53;;;;;;;9.07;8.10;;;;;;;;;;2064393;28;20173;-59
2022/03/09 04:38:53;;;;;;;8.67;7.87;;;;;;;;;;2064438;28;20236;-55
2022/03/09 04:39:53;;;;;;;9.20;8.27;;;;;;;;;;2072521;28;20266;-59
2022/03/09 04:40:54;;;;;;;9.47;8.47;;;;;;;;;;2072944;28;20161;-60
2022/03/09 04:41:54;;;;;;;10.43;8.73;;;;;;;;;;2067699;28;20192;-61
2022/03/09 04:42:54;;;;;;;9.40;8.50;;;;;;;;;;2072772;28;20169;-54
2022/03/09 04:43:55;;;;;;;10.43;9.17;;;;;;;;;;2072321;28;20251;-58
2022/03/09 04:44:55;;;;;;;9.40;8.50;;;;;;;;;;2072083;28;20173;-57
2022/03/09 04:45:56;;;;;;;9.90;8.90;;;;;;;;;;2072855;28;20664;-57
2022/03/09 04:46:56;;;;;;;8.83;8.00;;;;;;;;;;2071797;28;20462;-59
2022/03/09 04:47:56;;;;;;;10.83;9.27;;;;;;;;;;2067709;28;20165;-58
2022/03/09 04:48:57;;;;;;;9.90;8.90;;;;;;;;;;2072330;28;20208;-55
2022/03/09 04:49:57;;;;;;;13.03;8.17;;;;;;;;;;2073038;28;20188;-58
2022/03/09 04:50:57;;;;;;;9.83;8.43;;;;;;;;;;2070866;28;20173;-61
2022/03/09 04:51:57;;;;;;;12.07;8.90;;;;;;;;;;2064335;28;20165;-59
2022/03/09 04:52:58;;;;;;;11.03;9.70;;;;;;;;;;2064304;28;20197;-61
2022/03/09 04:53:58;;;;;;;9.87;8.93;;;;;;;;;;2059183;28;20721;-61
2022/03/09 04:54:58;;;;;;;8.77;7.87;;;;;;;;;;2063900;28;20269;-61
2022/03/09 04:55:59;;;;;;;8.90;7.97;;;;;;;;;;2073686;28;20234;-62
2022/03/09 04:57:01;;;;;;;8.97;8.17;;;;;;;;;;2072550;28;20172;-60
2022/03/09 04:58:01;;;;;;;10.20;8.53;;;;;;;;;;2076053;28;20414;-60
2022/03/09 04:59:01;;;;;;;11.27;8.33;;;;;;;;;;2077343;28;20303;-60
2022/03/09 05:00:03;;;;;;;9.37;8.57;;;;;;;;;;2072310;28;20232;-62
2022/03/09 05:01:03;;;;;;;13.77;8.00;;;;;;;;;;2072427;28;20169;-59
2022/03/09 05:02:04;;;;;;;9.30;8.00;;;;;;;;;;2072187;28;20426;-58
2022/03/09 05:03:04;;;;;;;8.57;7.70;;;;;;;;;;2073390;28;20169;-58
2022/03/09 05:04:04;;;;;;;10.00;9.00;;;;;;;;;;2071399;28;20192;-63
2022/03/09 05:05:05;;;;;;;9.63;8.57;;;;;;;;;;2073398;28;20259;-60
2022/03/09 05:06:05;;;;;;;10.37;9.07;;;;;;;;;;2073188;28;20169;-59
2022/03/09 05:07:05;;;;;;;9.43;8.20;;;;;;;;;;2072427;28;20219;-58
2022/03/09 05:08:06;;;;;;;8.30;7.50;;;;;;;;;;2073261;28;20547;-60
2022/03/09 05:09:06;;;;;;;9.13;8.03;;;;;;;;;;2073040;28;20278;-60
2022/03/09 05:10:07;;;;;;;11.37;8.23;;;;;;;;;;2070583;28;20732;-61
2022/03/09 05:11:07;;;;;;;9.30;8.20;;;;;;;;;;2072476;28;20200;-60
2022/03/09 05:12:08;;;;;;;9.97;8.30;;;;;;;;;;2070026;28;20421;-60
2022/03/09 05:13:08;;;;;;;11.97;8.20;;;;;;;;;;2067286;28;20677;-61
2022/03/09 05:14:08;;;;;;;9.73;7.83;;;;;;;;;;2069432;28;20239;-61
2022/03/09 05:15:09;;;;;;;11.87;8.70;;;;;;;;;;2072642;28;20169;-59
2022/03/09 05:16:09;;;;;;;10.47;8.00;;;;;;;;;;2072576;28;20180;-60
2022/03/09 05:17:09;;;;;;;9.50;7.80;;;;;;;;;;2072504;28;20187;-57
2022/03/09 05:18:10;;;;;;;8.67;7.77;;;;;;;;;;2063152;28;20221;-60
2022/03/09 05:19:10;;;;;;;9.10;8.20;;;;;;;;;;2053168;28;20214;-59
2022/03/09 05:20:11;;;;;;;10.10;8.67;;;;;;;;;;2064588;28;20676;-60
2022/03/09 05:21:11;;;;;;;11.57;8.50;;;;;;;;;;2071631;28;20173;-60
2022/03/09 05:22:14;;;;;;;9.33;8.33;;;;;;;;;;2070382;28;20406;-62
2022/03/09 05:23:15;;;;;;;8.97;8.17;;;;;;;;;;2072757;28;20476;-59
2022/03/09 05:24:16;;;;;;;8.30;7.60;;;;;;;;;;2061635;28;20168;-60
2022/03/09 05:25:17;;;;;;;11.47;7.93;;;;;;;;;;2053461;28;20170;-62
2022/03/09 05:26:18;;;;;;;9.43;8.37;;;;;;;;;;2061748;28;20511;-60
2022/03/09 05:27:18;;;;;;;9.17;8.23;;;;;;;;;;2070272;28;20259;-61
2022/03/09 05:28:18;;;;;;;10.10;8.57;;;;;;;;;;2069142;28;20177;-58
2022/03/09 05:29:18;;;;;;;8.50;7.67;;;;;;;;;;2070427;28;20169;-62
2022/03/09 05:30:19;;;;;;;10.10;8.50;;;;;;;;;;2072729;28;20630;-60
2022/03/09 05:31:19;;;;;;;9.63;8.37;;;;;;;;;;2063748;28;20181;-62
2022/03/09 05:32:20;;;;;;;11.03;8.70;;;;;;;;;;2064340;28;20629;-62
2022/03/09 05:33:20;;;;;;;9.43;8.43;;;;;;;;;;2062325;28;20174;-60
2022/03/09 05:34:20;;;;;;;13.13;8.80;;;;;;;;;;2058575;28;20196;-62
2022/03/09 05:35:21;;;;;;;11.90;8.83;;;;;;;;;;2070695;28;20191;-57
2022/03/09 05:36:21;;;;;;;9.87;8.77;;;;;;;;;;2070603;28;20173;-59
2022/03/09 05:37:22;;;;;;;10.83;8.17;;;;;;;;;;2064243;28;20193;-62
2022/03/09 05:38:23;;;;;;;9.50;8.43;;;;;;;;;;2063885;28;20189;-60
2022/03/09 05:39:23;;;;;;;8.97;8.00;;;;;;;;;;2055818;28;20487;-61
2022/03/09 05:40:23;;;;;;;9.00;8.03;;;;;;;;;;2062423;28;20181;-59
2022/03/09 05:41:23;;;;;;;9.40;8.43;;;;;;;;;;2063741;28;20204;-61
2022/03/09 05:42:24;;;;;;;10.00;8.97;;;;;;;;;;2063694;28;20209;-62
2022/03/09 05:43:24;;;;;;;9.37;8.33;;;;;;;;;;2071249;28;20189;-60
2022/03/09 05:44:24;;;;;;;13.23;9.27;;;;;;;;;;2071845;28;20177;-62
2022/03/09 05:45:24;;;;;;;10.83;8.77;;;;;;;;;;2072733;28;20181;-63
2022/03/09 05:46:25;;;;;;;11.03;9.23;;;;;;;;;;2070816;28;20268;-60
2022/03/09 05:47:25;;;;;;;10.33;8.40;;;;;;;;;;2063824;28;20192;-61
2022/03/09 05:48:25;;;;;;;10.37;8.90;;;;;;;;;;2054063;28;20224;-61
2022/03/09 05:49:26;;;;;;;9.60;8.63;;;;;;;;;;2062441;28;20173;-60
2022/03/09 05:50:26;;;;;;;10.90;8.97;;;;;;;;;;2069933;28;20221;-60
2022/03/09 05:51:26;;;;;;;11.47;10.47;;;;;;;;;;2062195;28;20185;-60
2022/03/09 05:52:27;;;;;;;10.33;9.40;;;;;;;;;;2063536;28;20708;-61
2022/03/09 05:53:27;;;;;;;11.07;9.47;;;;;;;;;;2072310;28;20183;-63
2022/03/09 05:54:27;;;;;;;10.10;9.10;;;;;;;;;;2071764;28;20176;-61
2022/03/09 05:55:27;;;;;;;10.30;9.20;;;;;;;;;;2071762;28;20168;-62
2022/03/09 05:56:28;;;;;;;11.20;9.03;;;;;;;;;;2072253;28;20173;-61
2022/03/09 05:57:28;;;;;;;11.67;9.50;;;;;;;;;;2071382;28;20187;-60
2022/03/09 05:58:28;;;;;;;11.90;9.37;;;;;;;;;;2064426;28;20187;-64
2022/03/09 05:59:28;;;;;;;11.53;9.33;;;;;;;;;;2063804;28;20221;-61
2022/03/09 06:00:29;;;;;;;10.30;9.20;;;;;;;;;;2063398;28;20174;-62
2022/03/09 06:01:29;;;;;;;10.93;9.17;;;;;;;;;;2064538;28;20212;-62
2022/03/09 06:02:29;;;;;;;10.53;9.43;;;;;;;;;;2072882;28;20219;-59
2022/03/09 06:03:30;;;;;;;8.80;7.90;;;;;;;;;;2068595;28;20607;-63